TimeCST,TemperatureF,Dew PointF,Humidity,Sea Level PressureIn,VisibilityMPH,Wind Direction,Wind SpeedMPH,Gust SpeedMPH,PrecipitationIn,Events,Conditions,WindDirDegrees,DateUTC
12:00 AM,70,57,55,29.81,12,East,9.2,,,,,100,2013-01-12 06:00:00
12:00 AM,69.8,57.2,64,29.97,-9999.0,East,9.2,-,N/A,,Clear,100,2013-01-12 06:00:00
1:00 AM,71.6,55.4,57,29.95,-9999.0,East,12.7,-,N/A,,Clear,100,2013-01-12 07:00:00
2:00 AM,69.8,55.4,60,29.94,-9999.0,East,12.7,-,N/A,,Clear,100,2013-01-12 08:00:00
3:00 AM,71,54,45,29.75,12,East,13.8,,,,,100,2013-01-12 09:00:00
3:00 AM,71.6,53.6,53,29.93,-9999.0,East,13.8,27.6,N/A,,Clear,100,2013-01-12 09:00:00
4:00 AM,69.8,55.4,60,29.93,-9999.0,ESE,11.5,23.0,N/A,,Clear,110,2013-01-12 10:00:00
5:00 AM,69.8,55.4,60,29.94,-9999.0,ESE,11.5,23.0,N/A,,Clear,110,2013-01-12 11:00:00
6:00 AM,,,,,12,East,12.7,,,,,100,2013-01-12 12:00:00
6:00 AM,69.8,55.4,60,29.95,-9999.0,East,12.7,24.2,N/A,,Clear,100,2013-01-12 12:00:00
7:00 AM,71.6,53.6,53,29.97,-9999.0,East,11.5,23.0,N/A,,Clear,100,2013-01-12 13:00:00
8:00 AM,75.2,55.4,50,29.98,-9999.0,East,19.6,-,N/A,,Clear,100,2013-01-12 14:00:00
9:00 AM,78,55,34,29.83,12,ESE,12.7,,,,,110,2013-01-12 15:00:00
9:00 AM,77.0,55.4,47,29.97,-9999.0,ESE,12.7,24.2,N/A,,Clear,110,2013-01-12 15:00:00
10:00 AM,80.6,55.4,42,29.97,-9999.0,East,13.8,25.3,N/A,,Clear,90,2013-01-12 16:00:00
11:00 AM,82.4,55.4,39,29.96,-9999.0,ESE,11.5,23.0,N/A,,Clear,120,2013-01-12 17:00:00
12:00 PM,84,56,28,29.75,12,ESE,11.5,,,,Scattered Clouds,110,2013-01-12 18:00:00
12:00 PM,84.2,57.2,40,29.94,6.2,ESE,11.5,23.0,N/A,,Partly Cloudy,110,2013-01-12 18:00:00
1:00 PM,82.4,57.2,42,29.92,6.2,East,11.5,23.0,N/A,,Partly Cloudy,100,2013-01-12 19:00:00
2:00 PM,82.4,57.2,42,29.91,6.2,East,15.0,-,N/A,,Partly Cloudy,90,2013-01-12 20:00:00
3:00 PM,81,58,35,29.73,12,East,12.7,,,,Scattered Clouds,100,2013-01-12 21:00:00
3:00 PM,80.6,57.2,45,29.91,6.2,East,12.7,-,N/A,,Partly Cloudy,100,2013-01-12 21:00:00
4:00 PM,80.6,57.2,45,29.92,6.2,East,11.5,-,N/A,,Partly Cloudy,90,2013-01-12 22:00:00
5:00 PM,77.0,59.0,54,29.93,6.2,East,11.5,-,N/A,,Scattered Clouds,100,2013-01-12 23:00:00
6:00 PM,73,57,48,29.82,12,ESE,8.1,,,,Scattered Clouds,120,2013-01-13 00:00:00
6:00 PM,73.4,57.2,57,29.95,6.2,ESE,8.1,-,N/A,,Mostly Cloudy,120,2013-01-13 00:00:00
7:00 PM,71.6,59.0,64,29.96,6.2,ESE,9.2,-,N/A,,Scattered Clouds,110,2013-01-13 01:00:00
8:00 PM,69.8,59.0,68,29.97,6.2,ESE,9.2,-,N/A,,Partly Cloudy,110,2013-01-13 02:00:00
9:00 PM,70,57,55,29.83,12,East,10.4,,,,,100,2013-01-13 03:00:00
9:00 PM,69.8,57.2,64,29.98,-9999.0,East,10.4,-,N/A,,Clear,100,2013-01-13 03:00:00
10:00 PM,69.8,57.2,64,30.00,-9999.0,East,11.5,-,N/A,,Clear,100,2013-01-13 04:00:00
11:00 PM,68.0,57.2,68,30.00,-9999.0,ESE,10.4,-,N/A,,Clear,110,2013-01-13 05:00:00